Station CPMW1 - 9449419 - Cherry Point South Dock Met, WA Image indicating link to RSS feed of recent meteorological observations for station CPMW1


Conditions at CPMW1 as of
(6:48 pm PDT on 07/17/2024)
0148 GMT on 07/18/2024:
     

Click on the graph icon in the table below to see a time series plot of the last five days of that observation.

5-day plot - Wind Direction Wind Direction (WDIR):SSE ( 150 deg true )
5-day plot - Wind Speed Wind Speed (WSPD): 11.1 kts
5-day plot - Wind Gust Wind Gust (GST): 12.0 kts
5-day plot -  Wind Speed, Wind Gust and Atmospheric Pressure Combined plot of Wind Speed, Gust, and Air Pressure
NOS Water Level Observation Network Water Level
Previous observations
TIME
(PDT)
5-day plot - Wind Direction
WDIR
 
5-day plot - Wind Speed
WSPD
kts
5-day plot - Wind Gust
GST
kts
5-day plot - Wave Height
WVHT
ft
5-day plot - Dominant Wave Period
DPD
sec
5-day plot - Average Wave Period
APD
sec
5-day plot - Mean Wave Direction
MWD
 
5-day plot - Atmospheric Pressure
PRES
in
5-day plot - Pressure Tendency
PTDY
in
5-day plot - Air Temperature
ATMP
°F
5-day plot - Water Temperature
WTMP
°F
5-day plot - Dew Point
DEWP
°F
5-day plot - Salinity
SAL
psu
5-day plot - Visibility
VIS
nmi
5-day plot - Tide (above MLLW)
TIDE
ft
2024-07-17 06:42 pmSSE 11.1 12.0------ 68.9-----
2024-07-17 06:36 pmSSE 8.9 9.9------ 69.3-----
2024-07-17 06:30 pmSSE 8.0 11.1------ 68.5-----
2024-07-17 06:24 pmSSE 11.1 12.0------ 68.9-----
2024-07-17 06:18 pmSSE 11.1 13.0------------
2024-07-17 06:12 pm SE 11.1 12.0------ 69.3-----
2024-07-17 06:06 pm SE 8.9 11.1------ 69.3-----
2024-07-17 06:00 pmSSE 9.9 11.1------ 68.0-----
2024-07-17 05:54 pm SE 8.0 8.9------ 67.8-----
2024-07-17 05:48 pmSSE 9.9 9.9------ 68.0-----
2024-07-17 05:42 pmSSE 9.9 14.0------ 67.8-----
2024-07-17 05:36 pm S 12.0 13.0------ 67.3-----
2024-07-17 05:30 pm S 6.0 8.0------ 68.0-----
2024-07-17 05:24 pmSSE 5.1 8.0------ 68.4-----
2024-07-17 05:18 pmSSE 6.0 7.0------ 68.4-----
2024-07-17 05:12 pm SE 5.1 6.0------ 66.6-----
2024-07-17 05:06 pm S 6.0 7.0------ 66.2-----
2024-07-17 05:00 pm S 6.0 7.0------ 66.6-----
2024-07-17 04:54 pmSSE 4.1 5.1------ 66.9-----
2024-07-17 04:48 pm S 5.1 6.0------------
2024-07-17 04:42 pm S 6.0 6.0------ 66.6-----
2024-07-17 04:36 pmSSW 4.1 4.1------ 67.5-----
2024-07-17 04:30 pmSSW 1.9 1.9------ 67.6-----
2024-07-17 04:24 pm S 1.9 1.9------ 66.2-----
2024-07-17 04:18 pmSSW 1.9 1.9------------
2024-07-17 04:12 pm SW 1.9 1.9------------
2024-07-17 04:06 pm SW 1.9 1.9------------
2024-07-17 04:00 pmSSW 1.9 2.9------------
2024-07-17 03:54 pm S 1.9 1.9------------
2024-07-17 03:48 pm SE 1.9 2.9------ 66.2-----
2024-07-17 03:42 pmSSE 2.9 2.9------ 66.0-----
2024-07-17 03:36 pmSSW 2.9 4.1------ 66.6-----
2024-07-17 03:30 pmSSW 4.1 5.1------ 66.2-----
2024-07-17 03:24 pm S 4.1 5.1------ 65.5-----
2024-07-17 03:18 pmSSW 4.1 5.1------ 65.5-----
2024-07-17 03:12 pm S 5.1 5.1------ 65.3-----
2024-07-17 03:06 pm S 4.1 5.1------ 65.5-----
2024-07-17 03:00 pm S 4.1 5.1------ 65.8-----
2024-07-17 02:54 pm S 2.9 2.9------ 66.2-----
2024-07-17 02:48 pm S 1.9 1.9------ 66.6-----
2024-07-17 02:42 pmSSE 1.9 1.9------ 66.2-----
2024-07-17 02:36 pm- 0.0 1.9------ 66.9-----
2024-07-17 02:30 pmSSW 2.9 4.1------ 66.4-----
2024-07-17 02:24 pm S 4.1 4.1------ 65.8-----
2024-07-17 02:18 pm S 4.1 5.1------ 66.0-----
2024-07-17 02:12 pm S 4.1 5.1------ 66.0-----
2024-07-17 02:06 pm S 5.1 6.0------ 65.5-----
2024-07-17 02:00 pm S 5.1 6.0------ 65.7-----
2024-07-17 01:54 pm S 6.0 6.0------ 65.8-----
2024-07-17 01:48 pmSSE 4.1 5.1------------
2024-07-17 01:42 pm S 5.1 5.1------ 66.0-----
2024-07-17 01:36 pmSSE 2.9 5.1------ 66.0-----
2024-07-17 01:30 pmSSE 5.1 5.1------ 65.7-----
2024-07-17 01:24 pmSSE 1.9 4.1------ 65.8-----
2024-07-17 01:18 pm SE 5.1 6.0------ 65.5-----
2024-07-17 01:12 pm SE 2.9 4.1------ 65.8-----
2024-07-17 01:06 pm SE 1.9 2.9------ 65.8-----
2024-07-17 01:00 pm SE 2.9 2.9------ 65.5-----
2024-07-17 12:54 pmSSE 2.9 2.9------ 65.5-----
2024-07-17 12:48 pmSSE 1.9 2.9------ 66.0-----
2024-07-17 12:42 pm- 0.0 1.0------ 66.7-----
2024-07-17 12:36 pm- 0.0 1.0------ 66.9-----
2024-07-17 12:30 pm- 0.0 1.0------ 67.1-----
2024-07-17 12:24 pmSSW 1.0 1.0------ 67.1-----
2024-07-17 12:18 pm- 0.0 1.0------------
2024-07-17 12:12 pm SW 1.0 1.9------ 66.4-----
2024-07-17 12:06 pmWNW 1.9 1.9------ 66.4-----
2024-07-17 12:00 pm W 1.0 1.9------ 66.4-----
2024-07-17 11:54 amWSW 1.9 1.9------ 66.2-----
2024-07-17 11:48 am SW 1.0 1.9------------
2024-07-17 11:42 am W 1.9 2.9------------
2024-07-17 11:36 am W 1.9 4.1------------
2024-07-17 11:30 amWNW 2.9 2.9------ 65.7-----
2024-07-17 11:24 amWNW 1.0 1.9------ 66.0-----
2024-07-17 11:18 amWSW 1.9 1.9------ 66.0-----
2024-07-17 11:12 amSSW 2.9 4.1------ 67.1-----
2024-07-17 11:06 amWSW 2.9 2.9------ 65.8-----
2024-07-17 11:00 am W 1.9 2.9------ 66.2-----
2024-07-17 10:54 amWNW 4.1 4.1------ 65.8-----
2024-07-17 10:48 amWNW 2.9 4.1------ 65.8-----
2024-07-17 10:42 amWNW 2.9 2.9------ 66.6-----
2024-07-17 10:36 am NW 1.9 2.9------ 67.5-----
2024-07-17 10:30 amNNW 1.9 2.9------ 67.3-----
2024-07-17 10:24 amNNW 1.9 2.9------ 67.1-----
2024-07-17 10:18 amNNW 1.0 1.9------ 66.7-----
2024-07-17 10:12 amWNW 1.9 1.9------ 65.8-----
2024-07-17 10:06 am W 1.9 1.9------ 65.8-----
2024-07-17 10:00 am W 1.9 1.9------ 66.6-----
2024-07-17 09:54 am- 0.0 1.0------ 68.0-----
2024-07-17 09:48 am- 0.0 1.0------ 67.5-----
2024-07-17 09:42 am- 0.0 0.0------ 68.4-----
2024-07-17 09:36 am- 0.0 1.0------ 66.7-----
2024-07-17 09:30 am- 0.0 1.9------ 66.2-----
2024-07-17 09:24 amSSE 1.9 2.9------ 64.9-----
2024-07-17 09:18 am SE 2.9 2.9------ 64.9-----
2024-07-17 09:12 am S 1.9 2.9------ 64.9-----
2024-07-17 09:06 am S 1.9 1.9------ 64.9-----
2024-07-17 09:00 am SE 1.9 2.9------ 64.9-----
2024-07-17 08:54 amESE 1.9 2.9------ 64.9-----
2024-07-17 08:48 am SE 1.9 2.9------ 64.8-----
2024-07-17 08:42 am S 2.9 4.1------ 64.2-----
2024-07-17 08:36 am S 2.9 4.1------ 63.9-----
2024-07-17 08:30 am S 2.9 4.1------ 64.2-----
2024-07-17 08:24 am SW 1.9 1.9------ 65.1-----
2024-07-17 08:18 am- 0.0 1.0------ 65.1-----
2024-07-17 08:12 am SE 1.0 1.9------ 64.4-----
2024-07-17 08:06 am SE 1.9 4.1------ 63.9-----
2024-07-17 08:00 am SE 2.9 4.1------ 63.7-----
2024-07-17 07:54 amSSE 2.9 2.9------ 63.9-----
2024-07-17 07:48 am- 0.0 1.0------ 64.8-----
2024-07-17 07:42 am S 1.9 2.9------ 64.0-----
2024-07-17 07:36 am S 2.9 2.9------ 64.0-----
2024-07-17 07:30 amSSW 1.9 1.9------ 65.3-----
2024-07-17 07:24 am S 1.9 1.9------ 65.5-----
2024-07-17 07:18 am- 0.0 1.0------ 66.7-----
2024-07-17 07:12 am- 0.0 1.0------ 66.7-----
2024-07-17 07:06 am- 0.0 1.0------ 65.5-----
2024-07-17 07:00 am- 0.0 1.9------ 64.8-----
2024-07-17 06:54 am NE 1.9 1.9------ 64.2-----
2024-07-17 06:48 am N 1.9 1.9------------
2024-07-17 06:42 am NW 1.9 2.9------------
2024-07-17 06:36 amWNW 1.9 2.9------------
2024-07-17 06:30 amWNW 1.9 1.9------ 63.7-----
2024-07-17 06:24 am- 0.0 1.9------ 63.9-----
2024-07-17 06:18 amNNE 1.0 1.0------ 64.0-----
2024-07-17 06:12 am- 0.0 1.9------ 64.0-----
2024-07-17 06:06 amNNE 1.9 1.9------ 63.1-----
2024-07-17 06:00 am N 1.9 4.1------ 62.8-----
2024-07-17 05:54 am N 4.1 5.1------ 62.8-----
2024-07-17 05:48 amNNW 4.1 4.1------ 62.4-----
2024-07-17 05:42 am N 1.9 2.9------ 62.2-----
2024-07-17 05:36 amNNW 1.9 2.9------ 63.1-----
2024-07-17 05:30 am- 0.0 1.0------ 63.3-----
2024-07-17 05:24 am- 0.0 0.0------ 63.0-----
2024-07-17 05:18 am- 0.0 0.0------ 63.0-----
2024-07-17 05:12 am- 0.0 1.0------ 63.0-----
2024-07-17 05:06 am- 0.0 1.0------ 63.1-----
2024-07-17 05:00 am- 0.0 1.0------ 63.1-----
2024-07-17 04:54 am- 0.0 1.0------ 63.7-----
2024-07-17 04:48 am- 0.0 1.0------ 63.9-----
2024-07-17 04:42 am N 1.0 1.9------ 63.9-----
2024-07-17 04:36 am N 1.9 1.9------ 63.5-----
2024-07-17 04:30 am N 1.9 1.9------ 63.5-----
2024-07-17 04:24 am N 1.0 1.9------ 63.9-----
2024-07-17 04:18 am- 0.0 1.0------ 63.9-----
2024-07-17 04:12 am N 1.0 1.9------ 63.9-----
2024-07-17 04:06 amNNW 1.9 1.9------ 64.0-----
2024-07-17 04:00 am- 0.0 1.9------ 66.0-----
2024-07-17 03:54 amESE 1.9 2.9------ 66.0-----
2024-07-17 03:48 amESE 2.9 4.1------ 66.0-----
2024-07-17 03:42 amESE 4.1 5.1------ 65.8-----
2024-07-17 03:36 amESE 5.1 5.1------ 65.5-----
2024-07-17 03:30 amESE 5.1 5.1------ 65.8-----
2024-07-17 03:24 amESE 4.1 4.1------ 65.3-----
2024-07-17 03:18 am E 1.9 2.9------ 65.7-----
2024-07-17 03:12 amNNE 1.0 1.9------ 65.7-----
2024-07-17 03:06 am- 0.0 1.9------ 65.3-----
2024-07-17 03:00 am N 1.0 1.9------ 66.4-----
2024-07-17 02:54 am E 1.9 2.9------ 66.7-----
2024-07-17 02:48 amESE 2.9 2.9------ 66.9-----
2024-07-17 02:42 amESE 1.9 2.9------ 66.7-----
2024-07-17 02:36 am E 1.9 2.9------ 66.6-----
2024-07-17 02:30 am E 2.9 2.9------ 66.6-----
2024-07-17 02:24 am E 1.9 2.9------ 66.7-----
2024-07-17 02:18 am E 1.9 4.1------ 66.7-----
2024-07-17 02:12 amESE 4.1 4.1------ 66.7-----
2024-07-17 02:06 amESE 2.9 4.1------ 66.6-----
2024-07-17 02:00 amESE 2.9 4.1------ 67.3-----
2024-07-17 01:54 am E 4.1 5.1------ 67.3-----
2024-07-17 01:48 am E 4.1 4.1------ 67.1-----
2024-07-17 01:42 am E 2.9 4.1------ 67.3-----
2024-07-17 01:36 am E 2.9 2.9------ 67.6-----
2024-07-17 01:30 am E 2.9 4.1------ 67.6-----
2024-07-17 01:24 am E 4.1 4.1------ 67.1-----
2024-07-17 01:18 am E 4.1 4.1------ 66.0-----
2024-07-17 01:12 am E 2.9 2.9------ 66.0-----
2024-07-17 01:06 am E 2.9 2.9------ 65.7-----
2024-07-17 01:00 am E 1.9 1.9------ 65.7-----
2024-07-17 12:54 am- 0.0 1.0------ 65.5-----
2024-07-17 12:48 am- 0.0 1.0------------
2024-07-17 12:42 am- 0.0 1.9------ 64.6-----
2024-07-17 12:36 amNNE 1.0 1.0------ 64.8-----
2024-07-17 12:30 amENE 1.0 1.9------ 65.5-----
2024-07-17 12:24 am E 1.0 1.9------ 65.7-----
2024-07-17 12:18 am E 1.9 1.9------------
2024-07-17 12:12 am E 1.9 1.9------ 64.9-----
2024-07-17 12:06 am- 0.0 1.0------ 64.6-----
2024-07-17 12:00 am- 0.0 1.9------ 65.1-----
2024-07-16 11:54 pmNNE 1.9 1.9------ 65.1-----
2024-07-16 11:48 pm E 1.9 1.9------------
2024-07-16 11:42 pmESE 1.0 1.9------ 65.3-----
2024-07-16 11:36 pm S 1.0 1.0------ 65.5-----
2024-07-16 11:30 pm- 0.0 1.0------ 65.1-----
2024-07-16 11:24 pmNNE 1.0 1.9------ 66.2-----
2024-07-16 11:18 pmNNE 1.9 1.9------ 66.2-----
2024-07-16 11:12 pm N 1.9 1.9------ 65.7-----
2024-07-16 11:06 pm SE 1.9 1.9------ 67.3-----
2024-07-16 11:00 pm SE 1.0 1.9------ 66.6-----
2024-07-16 10:54 pm S 1.9 1.9------ 67.1-----
2024-07-16 10:48 pm SW 1.0 1.9------------
2024-07-16 10:42 pm S 1.0 1.9------------
2024-07-16 10:36 pmSSE 1.0 1.9------------
2024-07-16 10:30 pm S 1.9 2.9------ 69.1-----
2024-07-16 10:24 pm SE 2.9 2.9------ 69.1-----
2024-07-16 10:18 pm SE 1.9 2.9------------
2024-07-16 10:12 pmESE 1.9 2.9------ 68.9-----
2024-07-16 10:06 pmESE 2.9 2.9------ 68.4-----
2024-07-16 10:00 pm E 1.9 1.9------ 67.5-----
2024-07-16 09:54 pm E 1.0 1.9------ 67.5-----
2024-07-16 09:48 pm E 1.9 1.9------ 68.0-----
2024-07-16 09:42 pmESE 1.9 1.9------ 68.5-----
2024-07-16 09:36 pmESE 1.9 2.9------ 67.8-----
2024-07-16 09:30 pmESE 2.9 2.9------ 67.1-----
2024-07-16 09:24 pm SE 4.1 4.1------ 67.3-----
2024-07-16 09:18 pm SE 2.9 4.1------------
2024-07-16 09:12 pm SE 2.9 2.9------------
2024-07-16 09:06 pmESE 2.9 2.9------------
2024-07-16 09:00 pmESE 4.1 4.1------ 69.1-----
2024-07-16 08:54 pmESE 2.9 4.1------ 69.1-----
2024-07-16 08:48 pmESE 2.9 2.9------ 68.7-----
2024-07-16 08:42 pm SE 2.9 2.9------ 68.5-----
2024-07-16 08:36 pmSSE 2.9 2.9------ 68.7-----
2024-07-16 08:30 pm S 2.9 2.9------ 69.1-----
2024-07-16 08:24 pmSSE 2.9 2.9------ 69.4-----
2024-07-16 08:18 pmSSE 2.9 2.9------ 69.6-----
2024-07-16 08:12 pm SE 1.9 1.9------ 70.0-----
2024-07-16 08:06 pm SE 1.9 1.9------ 70.2-----
2024-07-16 08:00 pm SE 1.9 1.9------ 70.0-----
2024-07-16 07:54 pmESE 1.9 1.9------ 70.0-----
2024-07-16 07:48 pm SE 1.9 1.9------------
2024-07-16 07:42 pm SE 1.0 1.9------ 70.3-----
2024-07-16 07:36 pm SE 1.9 1.9------ 70.3-----
2024-07-16 07:30 pm SE 1.9 1.9------ 70.2-----
2024-07-16 07:24 pmSSE 1.9 1.9------ 69.8-----
2024-07-16 07:18 pm SE 1.0 1.9------ 70.0-----
2024-07-16 07:12 pmSSE 1.0 1.9------ 70.0-----
2024-07-16 07:06 pm SE 1.9 1.9------ 69.3-----
2024-07-16 07:00 pm SE 1.9 1.9------ 69.1-----
2024-07-16 06:54 pmSSE 1.9 1.9------ 68.7-----